Time;durP1;ratioP1;P1;durP2;ratioP2;P2;SDS_P1;SDS_P2;PMS_P1;PMS_P2;Temp;Humidity;BMP_temperature;BMP_pressure;BME280_temperature;BME280_humidity;BME280_pressure;Samples;Min_cycle;Max_cycle;Signal;HPM_P1;HPM_P2
2022/11/30 00:01:37;;;;;;;0.50;0.50;;;;;;;;;;1777397;80;26613;-59
2022/11/30 00:06:39;;;;;;;0.55;0.55;;;;;;;;;;1762722;79;26191;-57
2022/11/30 00:09:07;;;;;;;0.60;0.60;;;;;;;;;;1829550;77;26294;-59
2022/11/30 00:11:39;;;;;;;0.55;0.55;;;;;;;;;;1811856;78;26312;-58
2022/11/30 00:14:08;;;;;;;0.57;0.57;;;;;;;;;;1803118;78;26227;-56
2022/11/30 00:16:45;;;;;;;0.60;0.60;;;;;;;;;;1850057;77;26573;-58
2022/11/30 00:19:19;;;;;;;0.50;0.50;;;;;;;;;;1812035;78;26668;-57
2022/11/30 00:21:57;;;;;;;0.57;0.57;;;;;;;;;;1846544;76;26211;-57
2022/11/30 00:24:30;;;;;;;0.40;0.40;;;;;;;;;;1847249;77;26168;-58
2022/11/30 00:26:59;;;;;;;0.45;0.45;;;;;;;;;;1850293;76;26668;-57
2022/11/30 00:29:28;;;;;;;0.47;0.47;;;;;;;;;;1846580;76;27183;-56
2022/11/30 00:32:03;;;;;;;0.40;0.40;;;;;;;;;;1847940;76;26688;-59
2022/11/30 00:34:34;;;;;;;0.55;0.55;;;;;;;;;;1845771;76;26364;-57
2022/11/30 00:37:04;;;;;;;0.57;0.57;;;;;;;;;;1849169;76;26634;-54
2022/11/30 00:39:33;;;;;;;0.40;0.40;;;;;;;;;;1848829;76;26203;-57
2022/11/30 00:44:37;;;;;;;0.50;0.50;;;;;;;;;;1802413;78;26229;-56
2022/11/30 00:47:33;;;;;;;0.50;0.50;;;;;;;;;;1760496;80;26759;-59
2022/11/30 00:49:50;;;;;;;0.40;0.40;;;;;;;;;;1782060;80;26339;-59
2022/11/30 00:52:21;;;;;;;0.50;0.50;;;;;;;;;;1823814;77;26176;-58
2022/11/30 00:54:50;;;;;;;0.50;0.50;;;;;;;;;;1779609;80;26244;-58
2022/11/30 00:57:26;;;;;;;0.50;0.50;;;;;;;;;;1751880;81;26245;-57
2022/11/30 01:00:00;;;;;;;0.50;0.50;;;;;;;;;;1753455;82;26253;-58
2022/11/30 01:02:36;;;;;;;0.50;0.50;;;;;;;;;;1744433;82;26816;-56
2022/11/30 01:05:07;;;;;;;0.50;0.50;;;;;;;;;;1716558;81;26847;-58
2022/11/30 01:07:52;;;;;;;0.47;0.47;;;;;;;;;;1758526;79;26719;-58
2022/11/30 01:10:15;;;;;;;0.45;0.45;;;;;;;;;;1752628;81;26741;-58
2022/11/30 01:12:44;;;;;;;0.60;0.60;;;;;;;;;;1756554;81;26326;-58
2022/11/30 01:15:23;;;;;;;0.50;0.50;;;;;;;;;;1790582;78;26341;-56
2022/11/30 01:17:55;;;;;;;0.42;0.42;;;;;;;;;;1789861;79;26226;-58
2022/11/30 01:20:29;;;;;;;0.53;0.53;;;;;;;;;;1821054;78;26254;-56
2022/11/30 01:23:05;;;;;;;0.47;0.47;;;;;;;;;;1821951;78;26299;-58
2022/11/30 01:25:35;;;;;;;0.47;0.47;;;;;;;;;;1822769;77;26315;-58
2022/11/30 01:28:22;;;;;;;0.75;0.40;;;;;;;;;;1815022;78;26313;-59
2022/11/30 01:30:48;;;;;;;0.40;0.40;;;;;;;;;;1821040;78;26877;-59
2022/11/30 01:33:30;;;;;;;0.50;0.50;;;;;;;;;;1818004;78;26237;-58
2022/11/30 01:36:06;;;;;;;0.42;0.42;;;;;;;;;;1820172;77;26298;-56
2022/11/30 01:38:47;;;;;;;0.40;0.40;;;;;;;;;;1723595;82;26650;-54
2022/11/30 01:41:26;;;;;;;0.40;0.40;;;;;;;;;;1730363;83;26291;-55
2022/11/30 01:43:57;;;;;;;0.50;0.50;;;;;;;;;;1704580;83;26398;-58
2022/11/30 01:46:52;;;;;;;;;;;;;;;;;;;;;
2022/11/30 01:49:21;;;;;;;0.50;0.50;;;;;;;;;;1714533;83;26826;-54
2022/11/30 01:52:00;;;;;;;0.40;0.40;;;;;;;;;;1784169;79;26260;-59
2022/11/30 01:54:30;;;;;;;0.50;0.50;;;;;;;;;;1783846;80;26732;-59
2022/11/30 01:57:23;;;;;;;;;;;;;;;;;;;;;
2022/11/30 02:02:30;;;;;;;0.42;0.42;;;;;;;;;;1727017;83;26700;-59
2022/11/30 02:04:55;;;;;;;0.40;0.40;;;;;;;;;;1728809;83;26345;-57
2022/11/30 02:07:30;;;;;;;0.60;0.60;;;;;;;;;;1768958;80;26256;-57
2022/11/30 02:09:58;;;;;;;0.62;0.62;;;;;;;;;;1781247;80;27067;-59
2022/11/30 02:12:38;;;;;;;0.60;0.60;;;;;;;;;;1854877;77;26218;-56
2022/11/30 02:15:21;;;;;;;0.55;0.55;;;;;;;;;;1857385;77;26237;-58
2022/11/30 02:18:02;;;;;;;0.50;0.50;;;;;;;;;;1852978;77;26830;-56
2022/11/30 02:20:50;;;;;;;0.53;0.53;;;;;;;;;;1796608;77;26358;-59
2022/11/30 02:23:33;;;;;;;0.60;0.60;;;;;;;;;;1817377;77;26653;-57
2022/11/30 02:26:22;;;;;;;0.50;0.50;;;;;;;;;;1816150;79;26649;-59
2022/11/30 02:31:59;;;;;;;0.55;0.55;;;;;;;;;;1705439;84;26744;-56
2022/11/30 02:34:29;;;;;;;0.50;0.50;;;;;;;;;;1697856;84;26282;-55
2022/11/30 02:37:30;;;;;;;0.50;0.50;;;;;;;;;;1705841;83;26268;-58
2022/11/30 02:40:21;;;;;;;;;;;;;;;;;;;;;
2022/11/30 02:43:06;;;;;;;0.50;0.50;;;;;;;;;;1627708;85;26698;-59
2022/11/30 02:45:52;;;;;;;;;;;;;;;;;;;;;
2022/11/30 02:48:24;;;;;;;0.60;0.60;;;;;;;;;;1649972;85;26715;-59
2022/11/30 02:51:14;;;;;;;;;;;;;;;;;;;;;
2022/11/30 02:53:54;;;;;;;0.50;0.50;;;;;;;;;;1625288;87;26300;-58
2022/11/30 02:56:31;;;;;;;0.60;0.60;;;;;;;;;;1628114;87;26365;-55
2022/11/30 03:05:05;;;;;;;0.50;0.50;;;;;;;;;;1546855;91;26325;-57
2022/11/30 03:07:48;;;;;;;0.60;0.60;;;;;;;;;;1554123;91;26288;-58
2022/11/30 03:10:26;;;;;;;0.70;0.70;;;;;;;;;;1555913;91;26352;-57
2022/11/30 03:13:10;;;;;;;0.70;0.70;;;;;;;;;;1553700;91;26767;-56
2022/11/30 03:15:49;;;;;;;0.50;0.50;;;;;;;;;;1581696;89;26778;-57
2022/11/30 03:18:22;;;;;;;1.22;0.55;;;;;;;;;;1521769;92;26482;-59
2022/11/30 03:21:01;;;;;;;0.60;0.60;;;;;;;;;;1531623;93;26350;-57
2022/11/30 03:26:17;;;;;;;0.60;0.60;;;;;;;;;;1409100;99;26783;-58
2022/11/30 03:28:54;;;;;;;0.60;0.60;;;;;;;;;;1495169;93;26783;-58
2022/11/30 03:31:45;;;;;;;0.70;0.70;;;;;;;;;;1470306;96;26892;-55
2022/11/30 03:34:27;;;;;;;0.60;0.60;;;;;;;;;;1449802;99;26727;-58
2022/11/30 03:37:06;;;;;;;0.50;0.50;;;;;;;;;;1494573;92;26750;-58
2022/11/30 03:42:27;;;;;;;0.62;0.62;;;;;;;;;;1561395;90;26369;-58
2022/11/30 03:45:04;;;;;;;0.65;0.65;;;;;;;;;;1613935;88;26759;-59
2022/11/30 03:53:02;;;;;;;0.60;0.60;;;;;;;;;;1695539;82;26262;-57
2022/11/30 03:55:45;;;;;;;0.40;0.40;;;;;;;;;;1710854;82;26738;-58
2022/11/30 03:58:31;;;;;;;0.57;0.57;;;;;;;;;;1738909;81;26736;-56
2022/11/30 04:04:10;;;;;;;0.60;0.60;;;;;;;;;;1709747;80;26772;-58
2022/11/30 04:06:41;;;;;;;0.60;0.60;;;;;;;;;;1740359;81;26278;-58
2022/11/30 04:09:26;;;;;;;0.60;0.60;;;;;;;;;;1738043;81;26211;-58
2022/11/30 04:11:51;;;;;;;0.70;0.70;;;;;;;;;;1722218;81;26221;-56
2022/11/30 04:14:18;;;;;;;0.70;0.70;;;;;;;;;;1734034;81;25749;-56
2022/11/30 04:16:49;;;;;;;0.60;0.60;;;;;;;;;;1791101;78;26573;-60
2022/11/30 04:19:14;;;;;;;0.70;0.70;;;;;;;;;;1843730;76;26688;-58
2022/11/30 04:21:41;;;;;;;0.50;0.50;;;;;;;;;;1843207;76;26825;-58
2022/11/30 04:24:09;;;;;;;0.42;0.42;;;;;;;;;;1810015;78;26745;-59
2022/11/30 04:26:36;;;;;;;0.70;0.70;;;;;;;;;;1804914;78;26617;-59
2022/11/30 04:29:04;;;;;;;0.72;0.72;;;;;;;;;;1807683;78;26327;-56
2022/11/30 04:31:31;;;;;;;0.80;0.80;;;;;;;;;;1813278;77;26289;-59
2022/11/30 04:33:59;;;;;;;0.70;0.70;;;;;;;;;;1795579;78;26271;-56
2022/11/30 04:36:26;;;;;;;0.70;0.70;;;;;;;;;;1792767;78;26195;-59
2022/11/30 04:38:54;;;;;;;0.98;0.68;;;;;;;;;;1794516;79;26191;-59
2022/11/30 04:41:21;;;;;;;0.60;0.60;;;;;;;;;;1793943;78;26195;-56
2022/11/30 04:43:50;;;;;;;0.80;0.80;;;;;;;;;;1795635;78;26703;-51
2022/11/30 04:46:17;;;;;;;0.72;0.72;;;;;;;;;;1801618;78;27000;-54
2022/11/30 04:48:44;;;;;;;0.70;0.70;;;;;;;;;;1838494;76;26269;-59
2022/11/30 04:51:11;;;;;;;0.70;0.70;;;;;;;;;;1835462;76;26301;-57
2022/11/30 04:53:39;;;;;;;0.70;0.70;;;;;;;;;;1830310;76;26244;-60
2022/11/30 04:56:08;;;;;;;0.60;0.60;;;;;;;;;;1793069;78;26270;-57
2022/11/30 04:58:35;;;;;;;0.72;0.72;;;;;;;;;;1798294;78;26735;-57
2022/11/30 05:01:02;;;;;;;0.70;0.70;;;;;;;;;;1799952;79;26292;-59
2022/11/30 05:03:30;;;;;;;0.65;0.65;;;;;;;;;;1804826;78;26359;-59
2022/11/30 05:05:59;;;;;;;0.70;0.65;;;;;;;;;;1799807;78;26246;-59
2022/11/30 05:08:26;;;;;;;0.60;0.60;;;;;;;;;;1754522;80;26777;-59
2022/11/30 05:10:54;;;;;;;0.62;0.62;;;;;;;;;;1813740;78;26218;-59
2022/11/30 05:13:22;;;;;;;0.50;0.50;;;;;;;;;;1810412;77;26297;-59
2022/11/30 05:15:49;;;;;;;0.70;0.70;;;;;;;;;;1816858;77;26226;-58
2022/11/30 05:18:16;;;;;;;1.00;0.82;;;;;;;;;;1816067;78;26276;-56
2022/11/30 05:20:47;;;;;;;0.60;0.60;;;;;;;;;;1813570;78;26567;-60
2022/11/30 05:23:15;;;;;;;0.80;0.80;;;;;;;;;;1817677;78;26207;-56
2022/11/30 05:25:43;;;;;;;0.82;0.82;;;;;;;;;;1812763;78;26239;-56
2022/11/30 05:28:11;;;;;;;0.80;0.80;;;;;;;;;;1813740;77;27227;-57
2022/11/30 05:30:39;;;;;;;0.68;0.68;;;;;;;;;;1815883;77;26776;-56
2022/11/30 05:33:07;;;;;;;0.78;0.78;;;;;;;;;;1819479;78;26219;-59
2022/11/30 05:35:34;;;;;;;1.95;0.80;;;;;;;;;;1815200;78;26242;-59
2022/11/30 05:38:02;;;;;;;0.80;0.80;;;;;;;;;;1815266;77;26678;-60
2022/11/30 05:40:31;;;;;;;0.80;0.80;;;;;;;;;;1816148;78;26316;-59
2022/11/30 05:42:58;;;;;;;1.00;0.70;;;;;;;;;;1797861;78;26757;-60
2022/11/30 05:45:26;;;;;;;1.50;0.90;;;;;;;;;;1769197;80;26204;-58
2022/11/30 05:47:53;;;;;;;0.80;0.80;;;;;;;;;;1794828;78;26312;-59
2022/11/30 05:50:21;;;;;;;0.90;0.90;;;;;;;;;;1833455;76;26215;-59
2022/11/30 05:52:48;;;;;;;0.70;0.70;;;;;;;;;;1864911;76;26232;-60
2022/11/30 05:55:15;;;;;;;0.80;0.80;;;;;;;;;;1862536;76;26211;-58
2022/11/30 05:57:43;;;;;;;1.00;1.00;;;;;;;;;;1860985;76;26750;-58
2022/11/30 06:00:10;;;;;;;4.20;0.90;;;;;;;;;;1824593;77;26300;-56
2022/11/30 06:02:38;;;;;;;1.65;0.80;;;;;;;;;;1800701;78;26227;-60
2022/11/30 06:05:05;;;;;;;1.27;0.70;;;;;;;;;;1821093;77;26222;-56
2022/11/30 06:07:32;;;;;;;1.57;0.90;;;;;;;;;;1804089;79;26238;-57
2022/11/30 06:09:59;;;;;;;0.90;0.90;;;;;;;;;;1794279;79;26231;-58
2022/11/30 06:12:27;;;;;;;0.90;0.90;;;;;;;;;;1837611;76;26688;-60
2022/11/30 06:14:54;;;;;;;4.72;1.10;;;;;;;;;;1839569;77;26716;-58
2022/11/30 06:17:21;;;;;;;1.20;1.10;;;;;;;;;;1846883;76;26211;-59
2022/11/30 06:19:49;;;;;;;5.08;1.10;;;;;;;;;;1822443;77;26234;-58
2022/11/30 06:22:16;;;;;;;2.80;1.10;;;;;;;;;;1790606;79;26325;-69
2022/11/30 06:24:43;;;;;;;2.60;1.15;;;;;;;;;;1822427;77;26280;-59
2022/11/30 06:27:10;;;;;;;4.05;1.32;;;;;;;;;;1833316;78;26309;-56
2022/11/30 06:29:38;;;;;;;3.17;1.10;;;;;;;;;;1837571;78;26267;-58
2022/11/30 06:32:06;;;;;;;1.50;1.05;;;;;;;;;;1839552;78;26247;-59
2022/11/30 06:34:34;;;;;;;1.47;1.10;;;;;;;;;;1823030;78;26246;-59
2022/11/30 06:37:01;;;;;;;4.12;1.10;;;;;;;;;;1792588;80;26277;-58
2022/11/30 06:39:28;;;;;;;1.25;1.15;;;;;;;;;;1791674;78;26834;-59
2022/11/30 06:41:56;;;;;;;2.05;1.20;;;;;;;;;;1793357;80;26230;-58
2022/11/30 06:44:23;;;;;;;1.47;0.95;;;;;;;;;;1792091;79;26248;-59
2022/11/30 06:46:50;;;;;;;4.08;1.20;;;;;;;;;;1784570;79;26234;-59
2022/11/30 06:49:17;;;;;;;1.15;1.15;;;;;;;;;;1793928;78;26286;-58
2022/11/30 06:51:45;;;;;;;3.33;1.30;;;;;;;;;;1820504;77;26805;-56
2022/11/30 06:54:12;;;;;;;4.83;1.20;;;;;;;;;;1820930;77;26640;-59
2022/11/30 06:56:39;;;;;;;1.30;1.30;;;;;;;;;;1823297;77;26213;-59
2022/11/30 06:59:07;;;;;;;3.42;1.30;;;;;;;;;;1840183;76;26212;-58
2022/11/30 07:01:34;;;;;;;1.20;1.20;;;;;;;;;;1842733;78;26649;-56
2022/11/30 07:04:01;;;;;;;1.30;1.20;;;;;;;;;;1841270;76;26212;-59
2022/11/30 07:06:28;;;;;;;1.32;1.15;;;;;;;;;;1843306;78;26729;-58
2022/11/30 07:08:56;;;;;;;1.10;1.10;;;;;;;;;;1841769;78;26285;-56
2022/11/30 07:11:23;;;;;;;1.10;1.10;;;;;;;;;;1842634;76;26204;-59
2022/11/30 07:13:51;;;;;;;1.07;1.07;;;;;;;;;;1843135;76;26286;-57
2022/11/30 07:16:18;;;;;;;1.47;1.37;;;;;;;;;;1822893;78;26798;-58
2022/11/30 07:18:45;;;;;;;1.10;1.10;;;;;;;;;;1794429;79;26226;-59
2022/11/30 07:21:12;;;;;;;1.15;1.15;;;;;;;;;;1829885;77;26207;-58
2022/11/30 07:26:25;;;;;;;1.10;1.10;;;;;;;;;;1839977;77;26199;-58
2022/11/30 07:28:57;;;;;;;1.25;1.15;;;;;;;;;;1838416;78;26196;-59
2022/11/30 07:31:25;;;;;;;1.10;1.10;;;;;;;;;;1854234;76;26295;-57
2022/11/30 07:33:53;;;;;;;1.30;1.30;;;;;;;;;;1822701;77;26217;-59
2022/11/30 07:36:26;;;;;;;1.32;1.22;;;;;;;;;;1784384;80;26218;-58
2022/11/30 07:39:10;;;;;;;;;;;;;;;;;;;;;
2022/11/30 07:41:37;;;;;;;1.17;1.17;;;;;;;;;;1826831;77;26268;-59
2022/11/30 07:44:23;;;;;;;;;;;;;;;;;;;;;
2022/11/30 07:46:53;;;;;;;1.17;1.17;;;;;;;;;;1836130;77;26264;-58
2022/11/30 07:49:16;;;;;;;1.32;1.22;;;;;;;;;;1824508;77;26285;-58
2022/11/30 07:51:42;;;;;;;1.20;1.20;;;;;;;;;;1825598;77;26289;-59
2022/11/30 07:54:12;;;;;;;1.02;1.02;;;;;;;;;;1801673;79;26742;-58
2022/11/30 07:56:39;;;;;;;1.05;1.05;;;;;;;;;;1833871;77;26234;-59
2022/11/30 07:59:06;;;;;;;1.00;1.00;;;;;;;;;;1848831;76;26256;-57
2022/11/30 08:01:33;;;;;;;0.90;0.90;;;;;;;;;;1849396;76;26307;-57
2022/11/30 08:04:01;;;;;;;0.88;0.88;;;;;;;;;;1849071;76;26184;-58
2022/11/30 08:06:29;;;;;;;0.78;0.78;;;;;;;;;;1869052;76;26990;-57
2022/11/30 08:08:58;;;;;;;1.67;1.05;;;;;;;;;;1848676;77;26188;-59
2022/11/30 08:11:30;;;;;;;1.10;1.10;;;;;;;;;;1848867;77;26272;-58
2022/11/30 08:14:07;;;;;;;0.90;0.90;;;;;;;;;;1849324;77;26338;-59
2022/11/30 08:19:43;;;;;;;1.10;1.10;;;;;;;;;;1717871;82;26318;-59
2022/11/30 08:22:28;;;;;;;1.10;1.10;;;;;;;;;;1701557;82;26268;-55
2022/11/30 08:25:13;;;;;;;0.90;0.90;;;;;;;;;;1723838;82;26381;-62
2022/11/30 08:30:25;;;;;;;1.10;1.10;;;;;;;;;;1674529;83;26405;-57
2022/11/30 08:32:53;;;;;;;5.75;1.15;;;;;;;;;;1713215;82;26772;-58
2022/11/30 08:35:20;;;;;;;4.97;1.70;;;;;;;;;;1707006;83;26696;-58
2022/11/30 08:37:47;;;;;;;4.75;1.15;;;;;;;;;;1810202;77;26219;-58
2022/11/30 08:40:14;;;;;;;1.65;1.00;;;;;;;;;;1848920;76;26188;-58
2022/11/30 08:42:42;;;;;;;1.25;1.05;;;;;;;;;;1828194;77;26221;-57
2022/11/30 08:45:09;;;;;;;2.22;1.00;;;;;;;;;;1832078;77;26220;-57
2022/11/30 08:47:36;;;;;;;1.42;1.10;;;;;;;;;;1830850;77;26742;-57
2022/11/30 08:50:04;;;;;;;1.05;1.05;;;;;;;;;;1800339;79;26186;-59
2022/11/30 08:52:31;;;;;;;1.98;0.98;;;;;;;;;;1821361;77;26255;-53
2022/11/30 08:54:58;;;;;;;1.40;0.95;;;;;;;;;;1822533;78;26222;-57
2022/11/30 08:57:26;;;;;;;1.55;1.20;;;;;;;;;;1813366;78;26237;-56
2022/11/30 08:59:53;;;;;;;2.90;1.12;;;;;;;;;;1805965;78;26236;-56
2022/11/30 09:02:20;;;;;;;1.20;1.10;;;;;;;;;;1806581;78;26273;-57
2022/11/30 09:04:49;;;;;;;1.00;1.00;;;;;;;;;;1806614;78;26287;-57
2022/11/30 09:07:17;;;;;;;0.93;0.93;;;;;;;;;;1812313;78;26706;-53
2022/11/30 09:09:44;;;;;;;2.15;1.30;;;;;;;;;;1808640;78;26241;-58
2022/11/30 09:12:11;;;;;;;1.27;0.88;;;;;;;;;;1806269;78;26246;-57
2022/11/30 09:14:39;;;;;;;0.95;0.90;;;;;;;;;;1780731;79;26306;-57
2022/11/30 09:17:06;;;;;;;1.67;1.00;;;;;;;;;;1800903;78;26363;-55
2022/11/30 09:19:33;;;;;;;1.75;0.70;;;;;;;;;;1774426;79;26265;-57
2022/11/30 09:22:01;;;;;;;1.25;1.10;;;;;;;;;;1777308;79;26200;-58
2022/11/30 09:24:28;;;;;;;1.15;1.10;;;;;;;;;;1830247;77;26789;-53
2022/11/30 09:26:56;;;;;;;0.80;0.80;;;;;;;;;;1831657;78;26814;-57
2022/11/30 09:29:23;;;;;;;1.00;1.00;;;;;;;;;;1828938;77;26736;-56
2022/11/30 09:31:51;;;;;;;1.30;1.00;;;;;;;;;;1831410;77;26301;-57
2022/11/30 09:34:18;;;;;;;3.60;1.17;;;;;;;;;;1831515;77;26246;-56
2022/11/30 09:36:45;;;;;;;1.10;1.10;;;;;;;;;;1845941;77;26352;-54
2022/11/30 09:39:13;;;;;;;2.65;1.22;;;;;;;;;;1830997;77;26631;-57
2022/11/30 09:41:56;;;;;;;3.42;1.25;;;;;;;;;;1830857;77;26249;-57
2022/11/30 09:44:37;;;;;;;1.30;1.30;;;;;;;;;;1830544;78;26205;-53
2022/11/30 09:47:06;;;;;;;1.27;1.25;;;;;;;;;;1821274;77;27027;-54
2022/11/30 09:49:38;;;;;;;1.47;1.30;;;;;;;;;;1818831;77;26616;-57
2022/11/30 09:52:06;;;;;;;1.40;1.40;;;;;;;;;;1826196;77;26273;-56
2022/11/30 09:54:38;;;;;;;1.30;1.30;;;;;;;;;;1831138;78;26292;-57
2022/11/30 09:57:19;;;;;;;1.95;1.25;;;;;;;;;;1839734;78;26226;-55
2022/11/30 09:59:48;;;;;;;1.40;1.40;;;;;;;;;;1838994;77;26227;-57
2022/11/30 10:02:16;;;;;;;1.30;1.30;;;;;;;;;;1838189;77;26288;-55
2022/11/30 10:04:44;;;;;;;1.62;1.20;;;;;;;;;;1827829;77;26196;-55
2022/11/30 10:07:15;;;;;;;1.92;1.40;;;;;;;;;;1838683;78;26656;-54
2022/11/30 10:09:44;;;;;;;1.40;1.40;;;;;;;;;;1775400;78;26270;-56
2022/11/30 10:12:16;;;;;;;1.22;1.22;;;;;;;;;;1766876;79;26375;-55
2022/11/30 10:14:50;;;;;;;1.70;1.32;;;;;;;;;;1831889;77;26845;-47
2022/11/30 10:17:19;;;;;;;3.58;1.40;;;;;;;;;;1823307;77;26600;-56
2022/11/30 10:19:54;;;;;;;1.70;1.57;;;;;;;;;;1831539;76;26251;-56
2022/11/30 10:22:22;;;;;;;1.60;1.50;;;;;;;;;;1831680;77;26243;-53
2022/11/30 10:24:54;;;;;;;1.30;1.30;;;;;;;;;;1831551;77;26286;-55
2022/11/30 10:27:26;;;;;;;1.40;1.30;;;;;;;;;;1831256;77;26198;-51
2022/11/30 10:29:54;;;;;;;1.60;1.50;;;;;;;;;;1836887;77;26264;-47
2022/11/30 10:32:22;;;;;;;1.50;1.40;;;;;;;;;;1832985;77;26649;-55
2022/11/30 10:34:54;;;;;;;1.90;1.40;;;;;;;;;;1831606;77;26712;-57
2022/11/30 10:37:22;;;;;;;1.42;1.32;;;;;;;;;;1830873;77;26242;-56
2022/11/30 10:39:57;;;;;;;2.00;1.50;;;;;;;;;;1842319;77;26218;-55
2022/11/30 10:42:26;;;;;;;1.50;1.40;;;;;;;;;;1831748;77;26724;-55
2022/11/30 10:44:55;;;;;;;1.40;1.40;;;;;;;;;;1825803;77;26773;-56
2022/11/30 10:47:23;;;;;;;1.60;1.50;;;;;;;;;;1810419;77;26786;-53
2022/11/30 10:49:52;;;;;;;1.67;1.45;;;;;;;;;;1831406;77;26367;-54
2022/11/30 10:52:23;;;;;;;2.33;1.70;;;;;;;;;;1831252;77;26353;-54
2022/11/30 10:54:52;;;;;;;1.70;1.30;;;;;;;;;;1825002;77;26667;-56
2022/11/30 10:57:20;;;;;;;1.40;1.40;;;;;;;;;;1825304;77;26214;-57
2022/11/30 10:59:49;;;;;;;1.52;1.42;;;;;;;;;;1825493;77;26199;-56
2022/11/30 11:02:36;;;;;;;2.15;1.60;;;;;;;;;;1826123;77;26821;-55
2022/11/30 11:05:08;;;;;;;2.15;1.40;;;;;;;;;;1824695;77;26213;-54
2022/11/30 11:07:36;;;;;;;1.32;1.20;;;;;;;;;;1824819;77;26195;-56
2022/11/30 11:10:04;;;;;;;1.37;1.32;;;;;;;;;;1824895;77;26238;-54
2022/11/30 11:12:31;;;;;;;1.30;1.17;;;;;;;;;;1840584;77;26278;-57
2022/11/30 11:15:09;;;;;;;1.30;1.30;;;;;;;;;;1825585;77;26677;-56
2022/11/30 11:17:36;;;;;;;1.40;1.05;;;;;;;;;;1825303;77;26194;-56
2022/11/30 11:20:05;;;;;;;1.25;1.25;;;;;;;;;;1825622;77;26283;-57
2022/11/30 11:22:34;;;;;;;1.98;1.32;;;;;;;;;;1820421;77;26218;-54
2022/11/30 11:25:08;;;;;;;1.70;1.20;;;;;;;;;;1828047;77;26218;-57
2022/11/30 11:27:36;;;;;;;1.20;1.20;;;;;;;;;;1825444;77;26191;-56
2022/11/30 11:30:13;;;;;;;1.77;1.20;;;;;;;;;;1829071;77;26300;-54
2022/11/30 11:32:42;;;;;;;1.35;1.30;;;;;;;;;;1823892;78;26226;-56
2022/11/30 11:35:28;;;;;;;1.00;1.00;;;;;;;;;;1826824;77;26226;-57
2022/11/30 11:37:55;;;;;;;1.05;1.05;;;;;;;;;;1824077;77;26222;-57
2022/11/30 11:40:23;;;;;;;1.10;1.10;;;;;;;;;;1832554;77;26205;-55
2022/11/30 11:42:57;;;;;;;1.20;1.20;;;;;;;;;;1804959;78;26316;-57
2022/11/30 11:45:25;;;;;;;1.07;1.07;;;;;;;;;;1770546;79;26242;-50
2022/11/30 11:47:59;;;;;;;1.20;1.20;;;;;;;;;;1766169;79;26312;-57
2022/11/30 11:50:28;;;;;;;2.50;1.07;;;;;;;;;;1825370;77;26304;-53
2022/11/30 11:53:21;;;;;;;1.30;1.20;;;;;;;;;;1820725;77;26218;-58
2022/11/30 11:55:44;;;;;;;1.40;1.27;;;;;;;;;;1823359;77;26230;-55
2022/11/30 11:58:14;;;;;;;1.30;1.20;;;;;;;;;;1828848;77;26255;-58
2022/11/30 12:00:41;;;;;;;2.17;1.32;;;;;;;;;;1839064;77;26292;-55
2022/11/30 12:03:16;;;;;;;2.35;1.40;;;;;;;;;;1825200;77;26285;-57
2022/11/30 12:05:50;;;;;;;3.08;1.50;;;;;;;;;;1824040;77;26844;-56
2022/11/30 12:08:37;;;;;;;1.92;1.27;;;;;;;;;;1827061;77;26226;-56
2022/11/30 12:11:06;;;;;;;2.50;1.20;;;;;;;;;;1824938;77;26276;-53
2022/11/30 12:13:35;;;;;;;2.25;1.40;;;;;;;;;;1825082;77;26229;-57
2022/11/30 12:16:07;;;;;;;1.47;1.32;;;;;;;;;;1825013;78;26234;-51
2022/11/30 12:18:38;;;;;;;2.95;1.37;;;;;;;;;;1821968;77;26205;-57
2022/11/30 12:21:07;;;;;;;2.62;1.20;;;;;;;;;;1822808;77;26372;-54
2022/11/30 12:23:36;;;;;;;1.65;1.30;;;;;;;;;;1837753;77;26297;-55
2022/11/30 12:26:08;;;;;;;2.55;1.57;;;;;;;;;;1824979;77;26761;-57
2022/11/30 12:28:37;;;;;;;2.12;1.20;;;;;;;;;;1824631;77;26177;-57
2022/11/30 12:31:10;;;;;;;3.05;1.30;;;;;;;;;;1825691;77;26761;-55
2022/11/30 12:33:55;;;;;;;3.72;1.25;;;;;;;;;;1829130;77;26214;-57
2022/11/30 12:36:40;;;;;;;2.22;1.30;;;;;;;;;;1797889;78;26296;-57
2022/11/30 12:39:14;;;;;;;2.12;1.10;;;;;;;;;;1797530;78;26300;-58
2022/11/30 12:41:42;;;;;;;3.27;1.37;;;;;;;;;;1766101;79;26958;-55
2022/11/30 12:44:17;;;;;;;1.22;1.10;;;;;;;;;;1823976;77;26206;-58
2022/11/30 12:46:45;;;;;;;1.30;1.20;;;;;;;;;;1823571;77;26418;-54
2022/11/30 12:49:20;;;;;;;1.85;1.25;;;;;;;;;;1807798;78;26210;-58
2022/11/30 12:51:52;;;;;;;1.62;1.20;;;;;;;;;;1768094;80;26868;-56
2022/11/30 12:54:20;;;;;;;2.17;1.20;;;;;;;;;;1838825;77;26295;-54
2022/11/30 12:56:52;;;;;;;1.20;0.95;;;;;;;;;;1799535;78;26815;-53
2022/11/30 12:59:21;;;;;;;0.90;0.90;;;;;;;;;;1793447;79;26307;-55
2022/11/30 13:01:58;;;;;;;1.65;1.35;;;;;;;;;;1826868;77;26219;-57
2022/11/30 13:04:27;;;;;;;1.45;1.25;;;;;;;;;;1817285;78;26286;-53
2022/11/30 13:06:56;;;;;;;1.30;1.20;;;;;;;;;;1822290;78;26216;-55
2022/11/30 13:09:37;;;;;;;1.12;1.07;;;;;;;;;;1836988;76;26314;-54
2022/11/30 13:12:08;;;;;;;2.65;1.30;;;;;;;;;;1792966;77;26294;-54
2022/11/30 13:14:36;;;;;;;1.55;1.10;;;;;;;;;;1799222;78;26301;-56
2022/11/30 13:17:05;;;;;;;1.10;1.00;;;;;;;;;;1843937;77;26300;-53
2022/11/30 13:19:36;;;;;;;1.20;1.10;;;;;;;;;;1797109;78;26289;-57
2022/11/30 13:22:05;;;;;;;1.15;1.15;;;;;;;;;;1814295;78;26231;-55
2022/11/30 13:24:34;;;;;;;1.02;1.00;;;;;;;;;;1803987;77;26215;-56
2022/11/30 13:27:03;;;;;;;0.95;0.95;;;;;;;;;;1814034;78;26265;-56
2022/11/30 13:29:38;;;;;;;2.52;1.10;;;;;;;;;;1814297;78;26233;-52
2022/11/30 13:32:07;;;;;;;1.00;1.00;;;;;;;;;;1816870;77;26212;-52
2022/11/30 13:34:34;;;;;;;0.98;0.90;;;;;;;;;;1814536;78;26257;-55
2022/11/30 13:37:05;;;;;;;1.12;0.90;;;;;;;;;;1814033;79;26242;-57
2022/11/30 13:39:34;;;;;;;0.85;0.85;;;;;;;;;;1824151;77;26199;-57
2022/11/30 13:42:02;;;;;;;1.10;1.10;;;;;;;;;;1820434;78;26186;-56
2022/11/30 13:44:33;;;;;;;1.57;1.07;;;;;;;;;;1819886;77;26218;-52
2022/11/30 13:47:02;;;;;;;1.00;1.00;;;;;;;;;;1806623;78;26299;-56
2022/11/30 13:49:30;;;;;;;1.05;1.05;;;;;;;;;;1813196;78;26668;-53
2022/11/30 13:51:57;;;;;;;0.90;0.90;;;;;;;;;;1814479;77;26230;-54
2022/11/30 13:54:41;;;;;;;1.00;1.00;;;;;;;;;;1812824;77;26724;-55
2022/11/30 13:57:10;;;;;;;0.90;0.90;;;;;;;;;;1813786;78;26214;-56
2022/11/30 13:59:40;;;;;;;1.00;1.00;;;;;;;;;;1813091;78;26736;-58
2022/11/30 14:02:25;;;;;;;1.05;0.93;;;;;;;;;;1813170;78;26222;-56
2022/11/30 14:04:52;;;;;;;1.00;1.00;;;;;;;;;;1814030;78;26193;-56
2022/11/30 14:07:36;;;;;;;0.90;0.90;;;;;;;;;;1821238;77;26197;-53
2022/11/30 14:10:04;;;;;;;1.00;1.00;;;;;;;;;;1814949;77;26884;-52
2022/11/30 14:12:38;;;;;;;1.00;1.00;;;;;;;;;;1814184;78;26296;-56
2022/11/30 14:15:24;;;;;;;1.00;1.00;;;;;;;;;;1813878;78;26288;-52
2022/11/30 14:17:53;;;;;;;2.52;1.00;;;;;;;;;;1815338;77;26284;-56
2022/11/30 14:20:23;;;;;;;0.90;0.90;;;;;;;;;;1812948;78;26222;-54
2022/11/30 14:22:50;;;;;;;1.00;1.00;;;;;;;;;;1822744;78;26415;-53
2022/11/30 14:25:19;;;;;;;1.07;1.07;;;;;;;;;;1815641;77;26258;-55
2022/11/30 14:27:48;;;;;;;1.05;1.02;;;;;;;;;;1815671;77;26300;-54
2022/11/30 14:30:17;;;;;;;1.20;1.10;;;;;;;;;;1819170;77;26212;-55
2022/11/30 14:32:46;;;;;;;0.90;0.90;;;;;;;;;;1813238;78;26189;-53
2022/11/30 14:35:17;;;;;;;0.93;0.93;;;;;;;;;;1814005;78;26183;-53
2022/11/30 14:37:55;;;;;;;1.00;1.00;;;;;;;;;;1801415;78;26235;-56
2022/11/30 14:40:23;;;;;;;1.10;1.10;;;;;;;;;;1757330;80;26248;-56
2022/11/30 14:42:52;;;;;;;1.00;1.00;;;;;;;;;;1823082;78;26236;-56
2022/11/30 14:45:21;;;;;;;2.45;1.20;;;;;;;;;;1831916;77;26200;-55
2022/11/30 14:47:50;;;;;;;1.00;1.00;;;;;;;;;;1825507;78;26306;-55
2022/11/30 14:50:22;;;;;;;1.07;1.07;;;;;;;;;;1797903;78;26243;-54
2022/11/30 14:52:53;;;;;;;1.30;1.00;;;;;;;;;;1800644;78;26225;-57
2022/11/30 14:55:37;;;;;;;2.17;1.32;;;;;;;;;;1827934;76;26336;-53
2022/11/30 14:58:06;;;;;;;1.60;1.50;;;;;;;;;;1831622;78;26650;-56
2022/11/30 15:00:41;;;;;;;1.22;1.12;;;;;;;;;;1831395;77;26785;-53
2022/11/30 15:03:19;;;;;;;1.20;1.17;;;;;;;;;;1831484;77;26174;-56
2022/11/30 15:05:48;;;;;;;1.50;1.30;;;;;;;;;;1832604;77;26225;-56
2022/11/30 15:08:16;;;;;;;1.70;1.25;;;;;;;;;;1830558;77;26210;-56
2022/11/30 15:10:43;;;;;;;1.10;1.10;;;;;;;;;;1797805;78;26296;-54
2022/11/30 15:13:12;;;;;;;1.15;1.10;;;;;;;;;;1797980;78;26300;-54
2022/11/30 15:15:41;;;;;;;1.10;1.10;;;;;;;;;;1802349;78;26349;-54
2022/11/30 15:18:15;;;;;;;1.10;1.10;;;;;;;;;;1817299;78;26305;-53
2022/11/30 15:20:50;;;;;;;1.65;1.10;;;;;;;;;;1821739;78;26247;-58
2022/11/30 15:23:17;;;;;;;2.45;1.27;;;;;;;;;;1815575;77;26303;-56
2022/11/30 15:25:46;;;;;;;1.20;1.20;;;;;;;;;;1814844;78;26743;-52
2022/11/30 15:28:15;;;;;;;1.40;1.30;;;;;;;;;;1823253;77;26624;-56
2022/11/30 15:30:44;;;;;;;1.45;1.12;;;;;;;;;;1813583;77;26263;-50
2022/11/30 15:33:18;;;;;;;1.45;1.35;;;;;;;;;;1817898;77;26680;-56
2022/11/30 15:35:47;;;;;;;1.47;1.37;;;;;;;;;;1833005;78;26282;-54
2022/11/30 15:38:22;;;;;;;1.95;1.20;;;;;;;;;;1831472;77;26305;-55
2022/11/30 15:40:51;;;;;;;1.37;1.27;;;;;;;;;;1830608;77;26387;-55
2022/11/30 15:43:22;;;;;;;1.37;1.12;;;;;;;;;;1796888;78;26248;-52
2022/11/30 15:45:56;;;;;;;1.10;1.10;;;;;;;;;;1803052;77;26833;-56
2022/11/30 15:48:25;;;;;;;1.10;1.10;;;;;;;;;;1813678;79;26226;-53
2022/11/30 15:50:53;;;;;;;1.55;1.10;;;;;;;;;;1822973;77;26222;-55
2022/11/30 15:53:21;;;;;;;1.20;1.10;;;;;;;;;;1817563;78;26242;-55
2022/11/30 15:55:59;;;;;;;1.27;1.20;;;;;;;;;;1812208;77;26307;-56